Pagina principale
METAR-TAF:

METAR-TAF

Aeroporti :

Wiener Neustadt, Austria

latitudine: 47-50-36N, longitudine: 016-15-29E, altezza: 272 m

Osservazione

Il bollettino è stato emesso 3 ore e 38 minuti fa, alle 17:00 UTC
Vento calmo
Temperature
Pressione

METAR: LOAN 161700Z 00000KT 25KM FEW030CU BKN070CU BKN300CI

Ora: 22:38 (20:38 UTC)

Previsione

Il bollettino è stato emesso 9 ore e 13 minuti fa, alle 11:25 UTC
Previsione valida dal 16 alle 12 UTC al 16 alle 21 UTC
Vento 10 kt da est
Visibilità 10 km o più
Nubi sparse ad un'altezza di 4000 ft
Temporaneamente
dal 16 alle 12 UTC al 16 alle 15 UTC
Vento 6 kt da nord-ovest
Evoluzione graduale
dal 16 alle 17 UTC al 16 alle 19 UTC
Vento 2 kt da direzioni variabili

TAF: LOAN 161125Z 1612/1621 08010KT 9999 SCT040 TEMPO 1612/1615 32006KT BECMG 1617/1619 VRB02KT

Osservazioni e previsioni meteorologiche di più di 4000 aeroporti (messaggi METAR e TAF).

Le stazioni disponibili sono rappresentate dai dischi gialli e rossi sulla carta.

Puntare il mouse per vedere il nome della stazione.

Clicca sopra per visualizzare le osservazioni e previsioni meteorologiche.

Per cambiare la mappa : fare clic sui pulsanti verdi con una croce nera per ingrandire, il pulsante verde con un trattino per diminuire, o sulla freccia verde per le mappe adiacenti.


METAR-TAF: